createdAt,value
2023-04-27T00:01:33.724Z,53.37
2023-04-27T00:06:37.112Z,53.18
2023-04-27T00:11:40.358Z,52.54
2023-04-27T00:16:43.862Z,52.86
2023-04-27T00:21:47.248Z,53.10
2023-04-27T00:26:50.775Z,53.43
2023-04-27T00:31:54.076Z,53.69
2023-04-27T00:36:57.998Z,54.00
2023-04-27T00:42:01.844Z,54.18
2023-04-27T00:47:06.485Z,55.03
2023-04-27T00:52:09.673Z,55.13
2023-04-27T00:57:13.186Z,55.58
2023-04-27T01:02:17.164Z,55.74
2023-04-27T01:07:26.054Z,55.90
2023-04-27T01:12:29.373Z,55.82
2023-04-27T01:17:33.021Z,56.35
2023-04-27T01:22:37.503Z,56.35
2023-04-27T01:27:41.040Z,56.38
2023-04-27T01:32:44.490Z,56.67
2023-04-27T01:37:48.190Z,57.25
2023-04-27T01:42:51.685Z,58.08
2023-04-27T01:47:55.003Z,58.22
2023-04-27T01:52:58.514Z,58.87
2023-04-27T01:58:02.035Z,58.51
2023-04-27T02:03:05.652Z,58.41
2023-04-27T02:08:09.472Z,58.91
2023-04-27T02:13:12.781Z,58.71
2023-04-27T02:18:16.298Z,59.34
2023-04-27T02:23:19.706Z,59.50
2023-04-27T02:28:23.225Z,59.21
2023-04-27T02:33:27.050Z,59.25
2023-04-27T02:38:30.875Z,59.50
2023-04-27T02:43:34.218Z,59.85
2023-04-27T02:48:37.701Z,59.90
2023-04-27T02:53:41.412Z,60.34
2023-04-27T02:58:45.236Z,60.56
2023-04-27T03:03:48.895Z,60.85
2023-04-27T03:08:52.575Z,61.24
2023-04-27T03:13:56.495Z,61.34
2023-04-27T03:19:00.321Z,61.52
2023-04-27T03:24:04.133Z,61.91
2023-04-27T03:29:07.574Z,61.89
2023-04-27T03:34:11.181Z,62.36
2023-04-27T03:39:15.015Z,62.13
2023-04-27T03:44:18.820Z,62.26
2023-04-27T03:49:22.438Z,62.34
2023-04-27T03:54:26.064Z,63.25
2023-04-27T03:59:30.526Z,62.65
2023-04-27T04:04:34.065Z,63.07
2023-04-27T04:09:37.836Z,62.99
2023-04-27T04:14:41.249Z,63.04
2023-04-27T04:19:44.765Z,63.63
2023-04-27T04:24:48.384Z,63.59
2023-04-27T04:29:51.794Z,64.06
2023-04-27T04:34:55.137Z,63.70
2023-04-27T04:39:58.724Z,63.95
2023-04-27T04:45:02.540Z,64.36
2023-04-27T04:50:07.179Z,64.27
2023-04-27T04:55:11.423Z,64.11
2023-04-27T05:00:14.829Z,64.25
2023-04-27T05:05:18.241Z,64.19
2023-04-27T05:10:21.753Z,64.31
2023-04-27T05:15:25.382Z,64.34
2023-04-27T05:20:28.806Z,64.58
2023-04-27T05:25:41.969Z,65.13
2023-04-27T05:30:45.650Z,65.35
2023-04-27T05:35:49.162Z,65.29
2023-04-27T05:40:57.197Z,65.60
2023-04-27T05:46:00.623Z,65.79
2023-04-27T05:51:04.866Z,65.81
2023-04-27T05:56:09.043Z,65.88
2023-04-27T06:01:12.995Z,65.86
2023-04-27T06:06:16.612Z,65.76
2023-04-27T06:11:19.929Z,65.90
2023-04-27T06:16:24.024Z,66.04
2023-04-27T06:21:28.453Z,66.11
2023-04-27T06:26:31.698Z,66.28
2023-04-27T06:31:35.306Z,66.17
2023-04-27T06:36:38.779Z,66.32
2023-04-27T06:41:42.241Z,65.97
2023-04-27T06:46:45.653Z,65.91
2023-04-27T06:51:49.744Z,65.46
2023-04-27T06:56:55.048Z,64.93
2023-04-27T07:01:58.507Z,64.25
2023-04-27T07:07:02.069Z,63.00
2023-04-27T07:12:05.481Z,61.29
2023-04-27T07:17:09.002Z,61.03
2023-04-27T07:22:12.516Z,61.08
2023-04-27T07:27:16.030Z,60.19
2023-04-27T07:32:19.467Z,59.20
2023-04-27T07:37:24.440Z,59.03
2023-04-27T07:42:27.808Z,58.65
2023-04-27T07:47:31.215Z,58.04
2023-04-27T07:52:34.632Z,58.08
2023-04-27T07:57:38.142Z,57.48
2023-04-27T08:02:41.720Z,56.62
2023-04-27T08:07:45.824Z,55.48
2023-04-27T08:12:49.305Z,55.19
2023-04-27T08:17:52.864Z,54.96
2023-04-27T08:22:56.872Z,54.89
2023-04-27T08:28:00.261Z,53.84
2023-04-27T08:33:03.726Z,53.44
2023-04-27T08:38:08.212Z,53.51
2023-04-27T08:43:12.249Z,53.36
2023-04-27T08:48:16.080Z,53.06
2023-04-27T08:53:23.080Z,53.44
2023-04-27T08:58:39.694Z,53.62
2023-04-27T09:03:43.772Z,53.39
2023-04-27T09:08:48.387Z,52.89
2023-04-27T09:13:51.870Z,52.46
2023-04-27T09:18:56.904Z,51.90
2023-04-27T09:24:13.953Z,51.53
2023-04-27T09:29:17.686Z,51.66
2023-04-27T09:34:21.356Z,51.13
2023-04-27T09:39:25.215Z,48.28
2023-04-27T09:44:30.319Z,48.14
2023-04-27T09:49:35.050Z,47.35
2023-04-27T09:54:42.832Z,47.34
2023-04-27T10:00:11.190Z,46.76
2023-04-27T10:05:33.189Z,47.69
2023-04-27T10:10:47.441Z,47.47
2023-04-27T10:15:52.596Z,47.52
2023-04-27T10:20:56.212Z,46.97
2023-04-27T10:26:07.747Z,46.48
2023-04-27T10:31:14.037Z,46.59
2023-04-27T10:36:17.526Z,46.57
2023-04-27T10:41:21.039Z,46.53
2023-04-27T10:46:24.429Z,45.98
2023-04-27T10:51:28.858Z,45.95
2023-04-27T10:56:33.731Z,44.52
2023-04-27T11:01:37.868Z,44.79
2023-04-27T11:06:47.042Z,44.17
2023-04-27T11:11:51.034Z,44.84
2023-04-27T11:16:54.379Z,45.40
2023-04-27T11:22:07.288Z,45.21
2023-04-27T11:27:10.690Z,45.37
2023-04-27T11:32:24.106Z,44.76
2023-04-27T11:37:28.082Z,44.16
2023-04-27T11:42:34.449Z,43.40
2023-04-27T11:47:38.323Z,42.41
2023-04-27T11:52:41.796Z,41.14
2023-04-27T11:57:45.300Z,40.42
2023-04-27T12:02:48.864Z,39.75
2023-04-27T12:07:52.859Z,39.79
2023-04-27T12:12:56.316Z,39.49
2023-04-27T12:18:00.547Z,39.78
2023-04-27T12:23:04.329Z,39.84
2023-04-27T12:28:08.360Z,39.73
2023-04-27T12:33:12.459Z,39.55
2023-04-27T12:38:16.203Z,39.15
2023-04-27T12:43:19.718Z,39.05
2023-04-27T12:48:23.874Z,39.41
2023-04-27T12:53:29.045Z,39.08
2023-04-27T12:58:32.607Z,39.19
2023-04-27T13:03:36.014Z,38.87
2023-04-27T13:08:39.863Z,38.67
2023-04-27T13:13:44.109Z,40.01
2023-04-27T13:18:49.859Z,41.99
2023-04-27T13:23:55.196Z,42.90
2023-04-27T13:28:58.731Z,44.67
2023-04-27T13:34:04.590Z,44.95
2023-04-27T13:39:08.033Z,45.86
2023-04-27T13:44:11.828Z,45.63
2023-04-27T13:49:15.480Z,45.20
2023-04-27T13:54:18.959Z,44.75
2023-04-27T13:59:22.471Z,44.78
2023-04-27T14:04:26.367Z,44.47
2023-04-27T14:09:29.911Z,44.98
2023-04-27T14:14:33.432Z,45.27
2023-04-27T14:19:37.560Z,46.04
2023-04-27T14:24:41.496Z,46.46
2023-04-27T14:29:45.001Z,47.41
2023-04-27T14:34:48.620Z,49.01
2023-04-27T14:39:52.034Z,49.76
2023-04-27T14:44:55.450Z,50.15
2023-04-27T14:49:59.082Z,50.32
2023-04-27T14:55:02.481Z,50.63
2023-04-27T15:00:10.225Z,50.77
2023-04-27T15:05:13.708Z,50.49
2023-04-27T15:10:17.436Z,50.53
2023-04-27T15:15:20.739Z,49.60
2023-04-27T15:20:24.669Z,46.87
2023-04-27T15:25:27.970Z,45.31
2023-04-27T15:30:31.437Z,44.38
2023-04-27T15:35:35.008Z,42.70
2023-04-27T15:40:40.671Z,40.49
2023-04-27T15:45:44.806Z,38.71
2023-04-27T15:50:48.110Z,38.46
2023-04-27T15:55:51.828Z,39.49
2023-04-27T16:00:55.359Z,40.22
2023-04-27T16:05:58.654Z,40.07
2023-04-27T16:11:02.023Z,39.64
2023-04-27T16:16:07.284Z,39.68
2023-04-27T16:21:10.737Z,39.94
2023-04-27T16:26:14.047Z,40.42
2023-04-27T16:31:17.781Z,40.27
2023-04-27T16:36:21.385Z,38.89
2023-04-27T16:41:24.903Z,36.90
2023-04-27T16:46:28.447Z,35.03
2023-04-27T16:51:32.133Z,34.53
2023-04-27T16:56:36.482Z,33.80
2023-04-27T17:01:40.440Z,31.99
2023-04-27T17:06:47.130Z,32.46
2023-04-27T17:11:50.605Z,32.58
2023-04-27T17:16:54.320Z,31.49
2023-04-27T17:21:57.949Z,31.81
2023-04-27T17:27:01.970Z,31.83
2023-04-27T17:32:05.830Z,31.85
2023-04-27T17:37:09.424Z,31.76
2023-04-27T17:42:12.941Z,32.50
2023-04-27T17:47:18.389Z,33.16
2023-04-27T17:52:22.927Z,33.70
2023-04-27T17:57:26.378Z,34.01
2023-04-27T18:02:30.121Z,34.57
2023-04-27T18:07:37.775Z,34.78
2023-04-27T18:12:41.296Z,35.63
2023-04-27T18:19:09.600Z,35.88
2023-04-27T18:24:13.117Z,36.62
2023-04-27T18:29:16.742Z,37.07
2023-04-27T18:34:20.652Z,37.23
2023-04-27T18:39:24.030Z,37.64
2023-04-27T18:44:27.381Z,37.95
2023-04-27T18:49:30.907Z,38.32
2023-04-27T18:54:34.512Z,39.07
2023-04-27T18:59:43.257Z,39.87
2023-04-27T19:04:52.833Z,40.41
2023-04-27T19:10:06.805Z,40.72
2023-04-27T19:15:10.809Z,41.22
2023-04-27T19:20:14.206Z,40.99
2023-04-27T19:25:17.734Z,41.48
2023-04-27T19:30:21.246Z,42.41
2023-04-27T19:35:26.604Z,42.79
2023-04-27T19:40:30.020Z,42.90
2023-04-27T19:45:34.000Z,43.42
2023-04-27T19:50:41.553Z,43.62
2023-04-27T19:55:45.060Z,43.67
2023-04-27T20:00:48.449Z,44.11
2023-04-27T20:05:52.217Z,44.29
2023-04-27T20:10:55.923Z,44.49
2023-04-27T20:15:59.315Z,44.86
2023-04-27T20:21:03.589Z,44.97
2023-04-27T20:26:07.174Z,45.37
2023-04-27T20:31:11.229Z,45.52
2023-04-27T20:36:18.177Z,45.86
2023-04-27T20:41:21.825Z,45.77
2023-04-27T20:46:25.335Z,45.59
2023-04-27T20:51:29.268Z,45.53
2023-04-27T20:56:33.245Z,46.04
2023-04-27T21:01:36.754Z,45.81
2023-04-27T21:06:41.490Z,46.39
2023-04-27T21:11:44.974Z,46.45
2023-04-27T21:16:48.545Z,46.84
2023-04-27T21:21:52.210Z,47.47
2023-04-27T21:26:56.124Z,47.57
2023-04-27T21:31:59.844Z,48.30
2023-04-27T21:37:03.787Z,47.99
2023-04-27T21:42:07.493Z,49.22
2023-04-27T21:47:11.547Z,49.20
2023-04-27T21:52:15.030Z,49.60
2023-04-27T21:57:20.056Z,49.16
2023-04-27T22:02:24.136Z,49.40
2023-04-27T22:07:28.554Z,50.07
2023-04-27T22:12:31.959Z,49.83
2023-04-27T22:17:35.831Z,49.95
2023-04-27T22:22:41.262Z,50.12
2023-04-27T22:27:45.600Z,50.63
2023-04-27T22:32:52.702Z,51.37
2023-04-27T22:37:56.721Z,50.52
2023-04-27T22:43:00.223Z,51.13
2023-04-27T22:48:03.977Z,50.79
2023-04-27T22:53:07.673Z,51.14
2023-04-27T22:58:11.383Z,51.39
2023-04-27T23:03:14.993Z,51.50
2023-04-27T23:08:18.939Z,51.46
2023-04-27T23:13:22.646Z,52.27
2023-04-27T23:18:26.163Z,52.43
2023-04-27T23:23:29.580Z,52.43
2023-04-27T23:28:33.096Z,52.59
2023-04-27T23:33:36.808Z,52.68
2023-04-27T23:38:40.328Z,53.25
2023-04-27T23:43:44.968Z,53.92
2023-04-27T23:48:48.383Z,54.07
2023-04-27T23:53:51.817Z,54.37
2023-04-27T23:58:55.315Z,54.10
